createdAt,value
2018-01-24T01:39:04.051Z,1013.45
2018-01-24T01:39:04.594Z,1013.42
2018-01-24T01:39:05.192Z,1013.45
2018-01-24T01:39:05.794Z,1013.43
2018-01-24T01:39:06.392Z,1013.43
2018-01-24T01:39:06.992Z,1013.43
2018-01-24T01:39:07.591Z,1013.43
2018-01-24T01:40:11.686Z,1013.38
2018-01-24T01:40:12.282Z,1013.37
2018-01-24T01:40:12.887Z,1013.36
2018-01-24T01:40:13.481Z,1013.35
2018-01-24T01:40:14.083Z,1013.37
2018-01-24T01:40:14.682Z,1013.35
2018-01-24T01:40:15.296Z,1013.39
2018-01-24T01:41:09.236Z,1013.36
2018-01-24T01:41:09.834Z,1013.38
2018-01-24T01:41:10.431Z,1013.38
2018-01-24T01:41:11.031Z,1013.35
2018-01-24T01:41:11.632Z,1013.35
2018-01-24T01:41:12.231Z,1013.34
2018-01-24T01:41:12.839Z,1013.36
2018-01-24T01:42:06.273Z,1013.35
2018-01-24T01:42:06.869Z,1013.36
2018-01-24T01:42:07.471Z,1013.35
2018-01-24T01:42:08.073Z,1013.34
2018-01-24T01:42:08.670Z,1013.32
2018-01-24T01:42:09.273Z,1013.34
2018-01-24T01:42:09.881Z,1013.33
2018-01-24T01:42:10.470Z,1013.33
2018-01-24T01:43:03.925Z,1013.34
2018-01-24T01:43:04.521Z,1013.30
2018-01-24T01:43:05.121Z,1013.34
2018-01-24T01:43:05.722Z,1013.35
2018-01-24T01:43:06.323Z,1013.31
2018-01-24T01:43:06.924Z,1013.31
2018-01-24T01:43:07.521Z,1013.34
2018-01-24T01:43:08.120Z,1013.33
2018-01-24T01:44:01.609Z,1013.34
2018-01-24T01:44:02.175Z,1013.32
2018-01-24T01:44:02.775Z,1013.36
2018-01-24T01:44:03.374Z,1013.37
2018-01-24T01:44:03.977Z,1013.33
2018-01-24T01:44:04.575Z,1013.35
2018-01-24T01:44:05.173Z,1013.34
2018-01-24T01:44:05.773Z,1013.37
2018-01-24T01:44:59.742Z,1013.31
2018-01-24T01:45:00.341Z,1013.31
2018-01-24T01:45:00.937Z,1013.32
2018-01-24T01:45:01.537Z,1013.32
2018-01-24T01:45:02.137Z,1013.30
2018-01-24T01:45:02.760Z,1013.32
2018-01-24T01:45:03.335Z,1013.32
2018-01-24T01:45:56.888Z,1013.36
2018-01-24T01:45:57.479Z,1013.33
2018-01-24T01:45:58.078Z,1013.38
2018-01-24T01:45:58.678Z,1013.36
2018-01-24T01:45:59.277Z,1013.36
2018-01-24T01:45:59.880Z,1013.33
2018-01-24T01:46:00.481Z,1013.34
2018-01-24T01:46:01.078Z,1013.34
2018-01-24T01:46:54.532Z,1013.34
2018-01-24T01:46:55.130Z,1013.35
2018-01-24T01:46:55.730Z,1013.35
2018-01-24T01:46:56.329Z,1013.35
2018-01-24T01:46:56.931Z,1013.35
2018-01-24T01:46:57.532Z,1013.31
2018-01-24T01:46:58.129Z,1013.35
2018-01-24T01:46:58.728Z,1013.35
2018-01-24T01:47:53.208Z,1013.36
2018-01-24T01:47:53.805Z,1013.34
2018-01-24T01:47:54.406Z,1013.34
2018-01-24T01:47:55.005Z,1013.34
2018-01-24T01:47:55.616Z,1013.37
2018-01-24T01:47:56.205Z,1013.36
2018-01-24T01:47:56.805Z,1013.33
2018-01-24T01:47:57.404Z,1013.37
2018-01-24T01:48:51.375Z,1013.33
2018-01-24T01:48:51.974Z,1013.37
2018-01-24T01:48:52.570Z,1013.38
2018-01-24T01:48:53.167Z,1013.36
2018-01-24T01:48:53.771Z,1013.34
2018-01-24T01:48:54.372Z,1013.39
2018-01-24T01:48:54.968Z,1013.36
2018-01-24T01:49:48.541Z,1013.33
2018-01-24T01:49:49.110Z,1013.31
2018-01-24T01:49:49.711Z,1013.34
2018-01-24T01:49:50.310Z,1013.31
2018-01-24T01:49:50.909Z,1013.33
2018-01-24T01:49:51.573Z,1013.32
2018-01-24T01:49:52.109Z,1013.28
2018-01-24T01:49:52.707Z,1013.32
2018-01-24T01:50:46.183Z,1013.27
2018-01-24T01:50:46.762Z,1013.28
2018-01-24T01:50:47.361Z,1013.30
2018-01-24T01:50:47.960Z,1013.29
2018-01-24T01:50:48.568Z,1013.31
2018-01-24T01:50:49.166Z,1013.29
2018-01-24T01:50:49.762Z,1013.28
2018-01-24T01:50:50.361Z,1013.26
2018-01-24T01:51:44.839Z,1013.32
2018-01-24T01:51:45.435Z,1013.29
2018-01-24T01:51:46.037Z,1013.31
2018-01-24T01:51:46.636Z,1013.34
2018-01-24T01:51:47.237Z,1013.32
2018-01-24T01:51:47.838Z,1013.31
2018-01-24T01:51:48.457Z,1013.29
2018-01-24T01:51:49.034Z,1013.22
2018-01-24T01:52:43.515Z,1013.27
2018-01-24T01:52:44.113Z,1013.26
2018-01-24T01:52:44.712Z,1013.28
2018-01-24T01:52:45.312Z,1013.29
2018-01-24T01:52:45.914Z,1013.28
2018-01-24T01:52:46.514Z,1013.32
2018-01-24T01:52:47.114Z,1013.25
2018-01-24T01:52:47.714Z,1013.30
2018-01-24T01:53:42.190Z,1013.36
2018-01-24T01:53:42.793Z,1013.33
2018-01-24T01:53:43.387Z,1013.35
2018-01-24T01:53:43.990Z,1013.33
2018-01-24T01:53:44.589Z,1013.37
2018-01-24T01:53:45.189Z,1013.31
2018-01-24T01:53:45.787Z,1013.34
2018-01-24T01:53:46.386Z,1013.34
2018-01-24T01:54:40.389Z,1013.29
2018-01-24T01:54:40.952Z,1013.31
2018-01-24T01:54:41.552Z,1013.30
2018-01-24T01:54:42.151Z,1013.30
2018-01-24T01:54:42.752Z,1013.32
2018-01-24T01:54:43.351Z,1013.30
2018-01-24T01:54:43.950Z,1013.31
2018-01-24T01:55:38.419Z,1013.30
2018-01-24T01:55:39.013Z,1013.33
2018-01-24T01:55:39.633Z,1013.31
2018-01-24T01:55:40.213Z,1013.31
2018-01-24T01:55:40.814Z,1013.35
2018-01-24T01:55:41.414Z,1013.36
2018-01-24T01:55:42.013Z,1013.32
2018-01-24T01:55:42.611Z,1013.27
2018-01-24T01:56:36.074Z,1013.38
2018-01-24T01:56:36.665Z,1013.35
2018-01-24T01:56:37.266Z,1013.37
2018-01-24T01:56:37.866Z,1013.35
2018-01-24T01:56:38.466Z,1013.37
2018-01-24T01:56:39.064Z,1013.38
2018-01-24T01:56:39.665Z,1013.34
2018-01-24T01:56:40.272Z,1013.35
2018-01-24T01:57:33.723Z,1013.32
2018-01-24T01:57:34.316Z,1013.33
2018-01-24T01:57:34.931Z,1013.35
2018-01-24T01:57:35.516Z,1013.32
2018-01-24T01:57:36.116Z,1013.31
2018-01-24T01:57:36.718Z,1013.31
2018-01-24T01:57:37.317Z,1013.31
2018-01-24T01:57:37.917Z,1013.33
2018-01-24T01:58:31.374Z,1013.32
2018-01-24T01:58:31.970Z,1013.32
2018-01-24T01:58:32.569Z,1013.34
2018-01-24T01:58:33.168Z,1013.31
2018-01-24T01:58:33.770Z,1013.33
2018-01-24T01:58:34.368Z,1013.36
2018-01-24T01:58:34.967Z,1013.37
2018-01-24T01:58:35.566Z,1013.36
2018-01-24T01:59:30.565Z,1013.33
2018-01-24T01:59:31.156Z,1013.36
2018-01-24T01:59:31.765Z,1013.32
2018-01-24T01:59:32.390Z,1013.34
2018-01-24T01:59:32.956Z,1013.31
2018-01-24T01:59:33.556Z,1013.32
2018-01-24T02:00:27.635Z,1013.35
2018-01-24T02:00:28.195Z,1013.38
2018-01-24T02:00:28.795Z,1013.36
2018-01-24T02:00:29.394Z,1013.35
2018-01-24T02:00:29.994Z,1013.36
2018-01-24T02:00:30.594Z,1013.39
2018-01-24T02:00:31.194Z,1013.39
2018-01-24T02:00:31.793Z,1013.37
2018-01-24T02:01:26.343Z,1013.33
2018-01-24T02:01:26.869Z,1013.35
2018-01-24T02:01:27.472Z,1013.38
2018-01-24T02:01:28.070Z,1013.37
2018-01-24T02:01:28.669Z,1013.35
2018-01-24T02:01:29.268Z,1013.38
2018-01-24T02:01:29.868Z,1013.36
2018-01-24T02:01:30.468Z,1013.36
2018-01-24T02:02:23.929Z,1013.32
2018-01-24T02:02:24.522Z,1013.31
2018-01-24T02:02:25.130Z,1013.33
2018-01-24T02:02:25.722Z,1013.29
2018-01-24T02:02:26.323Z,1013.32
2018-01-24T02:02:26.961Z,1013.31
2018-01-24T02:02:27.528Z,1013.33
2018-01-24T02:02:28.161Z,1013.35
2018-01-24T02:03:21.587Z,1013.41
2018-01-24T02:03:22.173Z,1013.42
2018-01-24T02:03:22.775Z,1013.38
2018-01-24T02:03:23.373Z,1013.43
2018-01-24T02:03:23.972Z,1013.40
2018-01-24T02:03:24.574Z,1013.40
2018-01-24T02:03:25.173Z,1013.42
2018-01-24T02:03:25.773Z,1013.40
2018-01-24T02:04:19.248Z,1013.46
2018-01-24T02:04:19.826Z,1013.43
2018-01-24T02:04:20.425Z,1013.42
2018-01-24T02:04:21.025Z,1013.45
2018-01-24T02:04:21.624Z,1013.42
2018-01-24T02:04:22.225Z,1013.43
2018-01-24T02:04:22.824Z,1013.42
2018-01-24T02:04:23.430Z,1013.45
2018-01-24T02:05:16.888Z,1013.44
2018-01-24T02:05:17.477Z,1013.45
2018-01-24T02:05:18.077Z,1013.47
2018-01-24T02:05:18.677Z,1013.46
2018-01-24T02:05:19.277Z,1013.42
2018-01-24T02:05:19.882Z,1013.41
2018-01-24T02:05:20.477Z,1013.45
2018-01-24T02:05:21.078Z,1013.46
2018-01-24T02:06:15.599Z,1013.46
2018-01-24T02:06:16.151Z,1013.42
2018-01-24T02:06:16.752Z,1013.42
2018-01-24T02:06:17.351Z,1013.45
2018-01-24T02:06:17.950Z,1013.43
2018-01-24T02:06:18.552Z,1013.46
2018-01-24T02:06:19.153Z,1013.43
2018-01-24T02:06:19.752Z,1013.45
2018-01-24T02:07:14.754Z,1013.42
2018-01-24T02:07:15.339Z,1013.42
2018-01-24T02:07:15.941Z,1013.44
2018-01-24T02:07:16.539Z,1013.43
2018-01-24T02:07:17.140Z,1013.46
2018-01-24T02:07:17.740Z,1013.44
2018-01-24T02:07:18.341Z,1013.44
2018-01-24T02:08:12.805Z,1013.45
2018-01-24T02:08:13.402Z,1013.41
2018-01-24T02:08:14.000Z,1013.43
2018-01-24T02:08:14.602Z,1013.45
2018-01-24T02:08:15.199Z,1013.46
2018-01-24T02:08:15.799Z,1013.43
2018-01-24T02:08:16.403Z,1013.46
2018-01-24T02:08:17.000Z,1013.47
2018-01-24T02:09:11.485Z,1013.40
2018-01-24T02:09:12.077Z,1013.43
2018-01-24T02:09:12.677Z,1013.39
2018-01-24T02:09:13.276Z,1013.43
2018-01-24T02:09:13.876Z,1013.43
2018-01-24T02:09:14.478Z,1013.41
2018-01-24T02:09:15.075Z,1013.43
2018-01-24T02:09:15.677Z,1013.43
2018-01-24T02:10:09.139Z,1013.41
2018-01-24T02:10:09.730Z,1013.41
2018-01-24T02:10:10.338Z,1013.43
2018-01-24T02:10:10.929Z,1013.42
2018-01-24T02:10:11.528Z,1013.41
2018-01-24T02:10:12.134Z,1013.41
2018-01-24T02:10:12.728Z,1013.39
2018-01-24T02:10:13.329Z,1013.42
2018-01-24T02:11:07.816Z,1013.41
2018-01-24T02:11:08.404Z,1013.42
2018-01-24T02:11:09.012Z,1013.40
2018-01-24T02:11:09.605Z,1013.35
2018-01-24T02:11:10.203Z,1013.40
2018-01-24T02:11:10.803Z,1013.39
2018-01-24T02:11:11.404Z,1013.40
2018-01-24T02:11:12.003Z,1013.40
2018-01-24T02:12:05.485Z,1013.47
2018-01-24T02:12:06.056Z,1013.44
2018-01-24T02:12:06.656Z,1013.49
2018-01-24T02:12:08.034Z,1013.48
2018-01-24T02:12:08.542Z,1013.48
2018-01-24T02:12:09.141Z,1013.46
2018-01-24T02:12:09.740Z,1013.46
2018-01-24T02:13:03.213Z,1013.45
2018-01-24T02:13:03.810Z,1013.41
2018-01-24T02:13:04.409Z,1013.45
2018-01-24T02:13:05.010Z,1013.43
2018-01-24T02:13:05.609Z,1013.42
2018-01-24T02:13:06.209Z,1013.45
2018-01-24T02:13:06.809Z,1013.42
2018-01-24T02:13:07.410Z,1013.44
2018-01-24T02:14:00.872Z,1013.40
2018-01-24T02:14:01.461Z,1013.42
2018-01-24T02:14:02.062Z,1013.42
2018-01-24T02:14:02.662Z,1013.42
2018-01-24T02:14:03.261Z,1013.43
2018-01-24T02:14:03.859Z,1013.42
2018-01-24T02:14:04.462Z,1013.41
2018-01-24T02:14:05.063Z,1013.40
2018-01-24T02:14:58.516Z,1013.44
2018-01-24T02:14:59.129Z,1013.45
2018-01-24T02:14:59.714Z,1013.43
2018-01-24T02:15:00.313Z,1013.43
2018-01-24T02:15:00.913Z,1013.42
2018-01-24T02:15:01.515Z,1013.44
2018-01-24T02:15:02.113Z,1013.43
2018-01-24T02:15:02.713Z,1013.43
2018-01-24T02:15:56.170Z,1013.42
2018-01-24T02:15:56.767Z,1013.42
2018-01-24T02:15:57.365Z,1013.45
2018-01-24T02:15:57.970Z,1013.43
2018-01-24T02:15:58.565Z,1013.44
2018-01-24T02:15:59.164Z,1013.40
2018-01-24T02:15:59.764Z,1013.42
2018-01-24T02:16:00.365Z,1013.42
2018-01-24T02:16:53.872Z,1013.42
2018-01-24T02:16:54.417Z,1013.42
2018-01-24T02:16:55.017Z,1013.42
2018-01-24T02:16:55.616Z,1013.42
2018-01-24T02:16:56.217Z,1013.43
2018-01-24T02:16:56.816Z,1013.43
2018-01-24T02:16:57.415Z,1013.45
2018-01-24T02:16:58.017Z,1013.40
2018-01-24T02:17:53.007Z,1013.53
2018-01-24T02:17:53.604Z,1013.48
2018-01-24T02:17:54.205Z,1013.48
2018-01-24T02:17:54.803Z,1013.49
2018-01-24T02:17:55.403Z,1013.48
2018-01-24T02:17:56.012Z,1013.44
2018-01-24T02:17:56.603Z,1013.47
2018-01-24T02:18:50.149Z,1013.47
2018-01-24T02:18:50.745Z,1013.50
2018-01-24T02:18:51.345Z,1013.50
2018-01-24T02:18:51.945Z,1013.48
2018-01-24T02:18:52.545Z,1013.50
2018-01-24T02:18:53.144Z,1013.47
2018-01-24T02:18:53.743Z,1013.49
2018-01-24T02:18:54.345Z,1013.46
2018-01-24T02:19:50.360Z,1013.47
2018-01-24T02:19:50.956Z,1013.48
2018-01-24T02:19:51.555Z,1013.46
2018-01-24T02:19:52.154Z,1013.50
2018-01-24T02:19:52.755Z,1013.48
2018-01-24T02:19:53.353Z,1013.53
2018-01-24T02:20:47.399Z,1013.45
2018-01-24T02:20:47.995Z,1013.43
2018-01-24T02:20:48.593Z,1013.48
2018-01-24T02:20:49.195Z,1013.48
2018-01-24T02:20:49.794Z,1013.48
2018-01-24T02:20:50.394Z,1013.44
2018-01-24T02:20:50.993Z,1013.47
2018-01-24T02:20:51.593Z,1013.48
2018-01-24T02:21:45.051Z,1013.44
2018-01-24T02:21:45.645Z,1013.44
2018-01-24T02:21:46.247Z,1013.44
2018-01-24T02:21:46.845Z,1013.46
2018-01-24T02:21:47.444Z,1013.46
2018-01-24T02:21:48.044Z,1013.45
2018-01-24T02:21:48.645Z,1013.47
2018-01-24T02:21:49.245Z,1013.46
2018-01-24T02:22:42.736Z,1013.46
2018-01-24T02:22:43.295Z,1013.44
2018-01-24T02:22:43.895Z,1013.45
2018-01-24T02:22:44.496Z,1013.42
2018-01-24T02:22:45.095Z,1013.43
2018-01-24T02:22:45.696Z,1013.45
2018-01-24T02:22:46.295Z,1013.40
2018-01-24T02:22:46.896Z,1013.44
2018-01-24T02:23:40.351Z,1013.46
2018-01-24T02:23:40.948Z,1013.47
2018-01-24T02:23:41.548Z,1013.44
2018-01-24T02:23:42.145Z,1013.44
2018-01-24T02:23:42.774Z,1013.45
2018-01-24T02:23:43.348Z,1013.45
2018-01-24T02:23:43.947Z,1013.46
2018-01-24T02:23:44.548Z,1013.45
2018-01-24T02:24:39.027Z,1013.43
2018-01-24T02:24:39.625Z,1013.45
2018-01-24T02:24:40.222Z,1013.46
2018-01-24T02:24:40.822Z,1013.47
2018-01-24T02:24:41.422Z,1013.47
2018-01-24T02:24:42.023Z,1013.50
2018-01-24T02:24:42.623Z,1013.44
2018-01-24T02:24:43.224Z,1013.45
2018-01-24T02:25:36.683Z,1013.44
2018-01-24T02:25:37.275Z,1013.45
2018-01-24T02:25:37.875Z,1013.41
2018-01-24T02:25:38.476Z,1013.46
2018-01-24T02:25:39.078Z,1013.43
2018-01-24T02:25:39.674Z,1013.44
2018-01-24T02:25:40.276Z,1013.44
2018-01-24T02:25:40.874Z,1013.43
2018-01-24T02:26:34.334Z,1013.43
2018-01-24T02:26:34.927Z,1013.43
2018-01-24T02:26:35.525Z,1013.41
2018-01-24T02:26:36.128Z,1013.39
2018-01-24T02:26:36.726Z,1013.41
2018-01-24T02:26:37.328Z,1013.42
2018-01-24T02:26:37.927Z,1013.42
2018-01-24T02:26:38.528Z,1013.44
2018-01-24T02:27:31.985Z,1013.40
2018-01-24T02:27:32.581Z,1013.41
2018-01-24T02:27:33.182Z,1013.41
2018-01-24T02:27:33.779Z,1013.41
2018-01-24T02:27:34.379Z,1013.42
2018-01-24T02:27:34.981Z,1013.42
2018-01-24T02:27:35.578Z,1013.41
2018-01-24T02:27:36.181Z,1013.38
2018-01-24T02:28:29.658Z,1013.43
2018-01-24T02:28:30.231Z,1013.43
2018-01-24T02:28:30.830Z,1013.47
2018-01-24T02:28:31.430Z,1013.47
2018-01-24T02:28:32.030Z,1013.46
2018-01-24T02:28:32.629Z,1013.47
2018-01-24T02:28:33.232Z,1013.48
2018-01-24T02:28:33.831Z,1013.47
2018-01-24T02:29:28.311Z,1013.43
2018-01-24T02:29:28.906Z,1013.44
2018-01-24T02:29:29.505Z,1013.45
2018-01-24T02:29:30.105Z,1013.42
2018-01-24T02:29:30.705Z,1013.42
2018-01-24T02:29:31.305Z,1013.43
2018-01-24T02:29:31.904Z,1013.44
2018-01-24T02:29:32.503Z,1013.42
2018-01-24T02:30:25.964Z,1013.39
2018-01-24T02:30:26.558Z,1013.41
2018-01-24T02:30:27.159Z,1013.40
2018-01-24T02:30:27.772Z,1013.40
2018-01-24T02:30:28.359Z,1013.38
2018-01-24T02:30:28.958Z,1013.44
2018-01-24T02:30:29.557Z,1013.40
2018-01-24T02:30:30.163Z,1013.37
2018-01-24T02:31:24.636Z,1013.40
2018-01-24T02:31:25.233Z,1013.43
2018-01-24T02:31:25.834Z,1013.42
2018-01-24T02:31:26.433Z,1013.42
2018-01-24T02:31:27.032Z,1013.41
2018-01-24T02:31:27.633Z,1013.41
2018-01-24T02:31:28.235Z,1013.44
2018-01-24T02:31:28.833Z,1013.38
2018-01-24T02:32:22.290Z,1013.43
2018-01-24T02:32:22.885Z,1013.38
2018-01-24T02:32:23.485Z,1013.43
2018-01-24T02:32:24.087Z,1013.43
2018-01-24T02:32:24.684Z,1013.41
2018-01-24T02:32:25.285Z,1013.38
2018-01-24T02:32:25.884Z,1013.40
2018-01-24T02:32:26.484Z,1013.40
2018-01-24T02:33:20.082Z,1013.45
2018-01-24T02:33:20.642Z,1013.45
2018-01-24T02:33:21.238Z,1013.49
2018-01-24T02:33:21.839Z,1013.44
2018-01-24T02:33:22.442Z,1013.45
2018-01-24T02:33:23.040Z,1013.47
2018-01-24T02:33:23.638Z,1013.49
2018-01-24T02:33:24.239Z,1013.48
2018-01-24T02:34:17.698Z,1013.46
2018-01-24T02:34:18.293Z,1013.46
2018-01-24T02:34:18.890Z,1013.42
2018-01-24T02:34:19.490Z,1013.46
2018-01-24T02:34:20.093Z,1013.44
2018-01-24T02:34:20.691Z,1013.43
2018-01-24T02:34:21.295Z,1013.46
2018-01-24T02:34:21.893Z,1013.40
2018-01-24T02:50:50.184Z,1013.20
2018-01-24T02:50:50.756Z,1013.20
2018-01-24T02:50:51.355Z,1013.22
2018-01-24T02:50:51.954Z,1013.24
2018-01-24T02:50:52.556Z,1013.22
2018-01-24T02:50:53.154Z,1013.24
2018-01-24T02:50:53.752Z,1013.23
2018-01-24T02:50:54.358Z,1013.22
2018-01-24T02:51:47.811Z,1013.15
2018-01-24T02:51:48.407Z,1013.18
2018-01-24T02:51:49.006Z,1013.19
2018-01-24T02:51:49.607Z,1013.21
2018-01-24T02:51:50.208Z,1013.19
2018-01-24T02:51:50.805Z,1013.21
2018-01-24T02:51:51.405Z,1013.25
2018-01-24T02:51:52.009Z,1013.22
2018-01-24T02:52:45.463Z,1013.25
2018-01-24T02:52:46.059Z,1013.21
2018-01-24T02:52:46.660Z,1013.25
2018-01-24T02:52:47.265Z,1013.21
2018-01-24T02:52:47.859Z,1013.27
2018-01-24T02:52:48.466Z,1013.27
2018-01-24T02:52:49.078Z,1013.24
2018-01-24T02:52:49.657Z,1013.19
2018-01-24T02:53:43.115Z,1013.25
2018-01-24T02:53:43.712Z,1013.27
2018-01-24T02:53:44.314Z,1013.27
2018-01-24T02:53:44.911Z,1013.27
2018-01-24T02:53:45.511Z,1013.26
2018-01-24T02:53:46.111Z,1013.26
2018-01-24T02:53:46.711Z,1013.26
2018-01-24T02:53:47.312Z,1013.25
2018-01-24T02:54:41.790Z,1013.20
2018-01-24T02:54:42.385Z,1013.26
2018-01-24T02:54:42.985Z,1013.25
2018-01-24T02:54:43.587Z,1013.25
2018-01-24T02:54:44.189Z,1013.25
2018-01-24T02:54:44.785Z,1013.25
2018-01-24T02:54:45.386Z,1013.26
2018-01-24T02:54:45.986Z,1013.24
2018-01-24T02:55:51.157Z,1013.27
2018-01-24T02:55:51.714Z,1013.25
2018-01-24T02:55:52.314Z,1013.29
2018-01-24T02:55:52.914Z,1013.26
2018-01-24T02:55:53.513Z,1013.30
2018-01-24T02:55:54.114Z,1013.29
2018-01-24T02:55:54.715Z,1013.28
2018-01-24T02:55:55.315Z,1013.29
2018-01-24T02:56:48.768Z,1013.24
2018-01-24T02:56:49.364Z,1013.22
2018-01-24T02:56:49.966Z,1013.25
2018-01-24T02:56:50.564Z,1013.25
2018-01-24T02:56:51.165Z,1013.25
2018-01-24T02:56:51.765Z,1013.26
2018-01-24T02:56:52.365Z,1013.22
2018-01-24T02:56:52.967Z,1013.21
2018-01-24T02:57:46.421Z,1013.27
2018-01-24T02:57:47.018Z,1013.28
2018-01-24T02:57:47.617Z,1013.30
2018-01-24T02:57:48.220Z,1013.26
2018-01-24T02:57:48.817Z,1013.32
2018-01-24T02:57:49.419Z,1013.28
2018-01-24T02:57:50.016Z,1013.29
2018-01-24T02:57:50.618Z,1013.30
2018-01-24T02:58:44.076Z,1013.25
2018-01-24T02:58:44.673Z,1013.22
2018-01-24T02:58:45.274Z,1013.21
2018-01-24T02:58:45.868Z,1013.15
2018-01-24T02:58:46.471Z,1013.26
2018-01-24T02:58:47.069Z,1013.23
2018-01-24T02:58:47.670Z,1013.25
2018-01-24T02:58:48.270Z,1013.26
2018-01-24T02:59:42.747Z,1013.26
2018-01-24T02:59:43.343Z,1013.30
2018-01-24T02:59:43.944Z,1013.25
2018-01-24T02:59:44.542Z,1013.32
2018-01-24T02:59:45.143Z,1013.24
2018-01-24T02:59:45.743Z,1013.25
2018-01-24T02:59:46.343Z,1013.26
2018-01-24T02:59:46.946Z,1013.26
2018-01-24T03:00:41.424Z,1013.28
2018-01-24T03:00:42.022Z,1013.25
2018-01-24T03:00:42.619Z,1013.26
2018-01-24T03:00:43.220Z,1013.23
2018-01-24T03:00:43.820Z,1013.27
2018-01-24T03:00:44.419Z,1013.24
2018-01-24T03:00:45.019Z,1013.26
2018-01-24T03:00:45.646Z,1013.28
2018-01-24T03:01:39.104Z,1013.24
2018-01-24T03:01:39.675Z,1013.23
2018-01-24T03:01:40.271Z,1013.23
2018-01-24T03:01:40.873Z,1013.22
2018-01-24T03:01:41.474Z,1013.27
2018-01-24T03:01:42.072Z,1013.24
2018-01-24T03:01:42.673Z,1013.24
2018-01-24T03:01:43.314Z,1013.25
2018-01-24T03:02:37.751Z,1013.27
2018-01-24T03:02:38.373Z,1013.24
2018-01-24T03:02:38.947Z,1013.26
2018-01-24T03:02:39.548Z,1013.27
2018-01-24T03:02:40.149Z,1013.27
2018-01-24T03:02:40.747Z,1013.25
2018-01-24T03:02:41.346Z,1013.28
2018-01-24T03:02:41.955Z,1013.29
2018-01-24T03:03:36.426Z,1013.32
2018-01-24T03:03:37.025Z,1013.33
2018-01-24T03:03:37.623Z,1013.29
2018-01-24T03:03:38.223Z,1013.30
2018-01-24T03:03:38.823Z,1013.31
2018-01-24T03:03:39.422Z,1013.32
2018-01-24T03:03:40.025Z,1013.33
2018-01-24T03:03:40.623Z,1013.33
2018-01-24T03:04:34.086Z,1013.34
2018-01-24T03:04:34.678Z,1013.35
2018-01-24T03:04:35.277Z,1013.28
2018-01-24T03:04:35.874Z,1013.35
2018-01-24T03:04:36.474Z,1013.33
2018-01-24T03:04:37.075Z,1013.35
2018-01-24T03:04:37.674Z,1013.31
2018-01-24T03:04:38.274Z,1013.32
2018-01-24T03:05:31.735Z,1013.32
2018-01-24T03:05:32.327Z,1013.31
2018-01-24T03:05:32.928Z,1013.28
2018-01-24T03:05:33.528Z,1013.30
2018-01-24T03:05:34.128Z,1013.27
2018-01-24T03:05:34.728Z,1013.35
2018-01-24T03:05:35.325Z,1013.30
2018-01-24T03:05:35.925Z,1013.30
2018-01-24T03:06:29.415Z,1013.31
2018-01-24T03:06:29.978Z,1013.29
2018-01-24T03:06:30.580Z,1013.32
2018-01-24T03:06:31.183Z,1013.33
2018-01-24T03:06:31.776Z,1013.28
2018-01-24T03:06:32.375Z,1013.30
2018-01-24T03:06:32.979Z,1013.30
2018-01-24T03:06:33.578Z,1013.30
2018-01-24T03:07:27.039Z,1013.37
2018-01-24T03:07:27.631Z,1013.34
2018-01-24T03:07:28.231Z,1013.33
2018-01-24T03:07:28.832Z,1013.31
2018-01-24T03:07:29.430Z,1013.32
2018-01-24T03:07:30.037Z,1013.31
2018-01-24T03:07:30.630Z,1013.33
2018-01-24T03:07:31.233Z,1013.34
2018-01-24T03:08:24.689Z,1013.34
2018-01-24T03:08:25.284Z,1013.32
2018-01-24T03:08:25.883Z,1013.31
2018-01-24T03:08:26.481Z,1013.31
2018-01-24T03:08:27.083Z,1013.32
2018-01-24T03:08:27.686Z,1013.29
2018-01-24T03:08:28.282Z,1013.28
2018-01-24T03:08:28.882Z,1013.30
2018-01-24T03:09:22.339Z,1013.35
2018-01-24T03:09:22.935Z,1013.36
2018-01-24T03:09:23.537Z,1013.35
2018-01-24T03:09:24.133Z,1013.34
2018-01-24T03:09:24.736Z,1013.31
2018-01-24T03:09:25.333Z,1013.34
2018-01-24T03:09:25.932Z,1013.31
2018-01-24T03:09:26.532Z,1013.33
2018-01-24T03:10:19.992Z,1013.31
2018-01-24T03:10:20.586Z,1013.31
2018-01-24T03:10:21.185Z,1013.33
2018-01-24T03:10:21.786Z,1013.27
2018-01-24T03:10:22.386Z,1013.33
2018-01-24T03:10:22.986Z,1013.30
2018-01-24T03:10:23.584Z,1013.33
2018-01-24T03:10:24.188Z,1013.32
2018-01-24T03:11:17.643Z,1013.29
2018-01-24T03:11:18.237Z,1013.29
2018-01-24T03:11:18.837Z,1013.26
2018-01-24T03:11:19.438Z,1013.28
2018-01-24T03:11:20.052Z,1013.28
2018-01-24T03:11:20.638Z,1013.27
2018-01-24T03:11:21.235Z,1013.27
2018-01-24T03:11:21.836Z,1013.28
2018-01-24T03:12:16.348Z,1013.29
2018-01-24T03:12:16.913Z,1013.25
2018-01-24T03:12:17.513Z,1013.25
2018-01-24T03:12:18.112Z,1013.26
2018-01-24T03:12:18.712Z,1013.26
2018-01-24T03:12:19.311Z,1013.25
2018-01-24T03:12:19.911Z,1013.25
2018-01-24T03:12:20.511Z,1013.26
2018-01-24T03:13:13.970Z,1013.24
2018-01-24T03:13:14.566Z,1013.19
2018-01-24T03:13:15.166Z,1013.22
2018-01-24T03:13:15.766Z,1013.23
2018-01-24T03:13:16.365Z,1013.22
2018-01-24T03:13:16.964Z,1013.21
2018-01-24T03:13:17.565Z,1013.23
2018-01-24T03:13:18.165Z,1013.23
2018-01-24T03:14:12.642Z,1013.25
2018-01-24T03:14:13.241Z,1013.24
2018-01-24T03:14:13.843Z,1013.26
2018-01-24T03:14:14.439Z,1013.28
2018-01-24T03:14:15.039Z,1013.26
2018-01-24T03:14:15.640Z,1013.28
2018-01-24T03:14:16.249Z,1013.24
2018-01-24T03:14:16.841Z,1013.28
2018-01-24T03:15:10.300Z,1013.28
2018-01-24T03:15:10.894Z,1013.27
2018-01-24T03:15:11.495Z,1013.27
2018-01-24T03:15:12.092Z,1013.28
2018-01-24T03:15:12.694Z,1013.30
2018-01-24T03:15:13.292Z,1013.29
2018-01-24T03:15:13.903Z,1013.30
2018-01-24T03:15:14.493Z,1013.29
2018-01-24T03:16:07.950Z,1013.26
2018-01-24T03:16:08.544Z,1013.28
2018-01-24T03:16:09.143Z,1013.29
2018-01-24T03:16:09.744Z,1013.27
2018-01-24T03:16:10.343Z,1013.28
2018-01-24T03:16:10.943Z,1013.29
2018-01-24T03:16:11.585Z,1013.31
2018-01-24T03:16:12.145Z,1013.26
2018-01-24T03:17:05.600Z,1013.29
2018-01-24T03:17:06.197Z,1013.31
2018-01-24T03:17:06.798Z,1013.30
2018-01-24T03:17:07.395Z,1013.33
2018-01-24T03:17:07.995Z,1013.33
2018-01-24T03:17:08.594Z,1013.27
2018-01-24T03:17:09.196Z,1013.29
2018-01-24T03:17:09.801Z,1013.31
2018-01-24T03:18:04.819Z,1013.32
2018-01-24T03:18:05.386Z,1013.31
2018-01-24T03:18:05.982Z,1013.34
2018-01-24T03:18:06.582Z,1013.32
2018-01-24T03:18:07.184Z,1013.33
2018-01-24T03:18:07.783Z,1013.34
2018-01-24T03:19:22.307Z,1013.32
2018-01-24T03:19:22.903Z,1013.35
2018-01-24T03:19:24.315Z,1013.33
2018-01-24T03:19:24.822Z,1013.32
2018-01-24T03:19:25.421Z,1013.32
2018-01-24T03:19:26.020Z,1013.37
2018-01-24T03:19:26.627Z,1013.32
2018-01-24T03:20:21.085Z,1013.31
2018-01-24T03:20:21.680Z,1013.32
2018-01-24T03:20:22.278Z,1013.31
2018-01-24T03:20:22.879Z,1013.30
2018-01-24T03:20:23.478Z,1013.32
2018-01-24T03:20:24.084Z,1013.30
2018-01-24T03:20:24.678Z,1013.28
2018-01-24T03:20:25.278Z,1013.30
2018-01-24T03:21:18.737Z,1013.30
2018-01-24T03:21:19.332Z,1013.28
2018-01-24T03:21:19.932Z,1013.32
2018-01-24T03:21:20.536Z,1013.34
2018-01-24T03:21:21.130Z,1013.26
2018-01-24T03:21:21.732Z,1013.28
2018-01-24T03:21:22.330Z,1013.29
2018-01-24T03:21:22.930Z,1013.30
2018-01-24T03:22:16.388Z,1013.32
2018-01-24T03:22:16.983Z,1013.29
2018-01-24T03:22:17.581Z,1013.31
2018-01-24T03:22:18.181Z,1013.32
2018-01-24T03:22:18.785Z,1013.33
2018-01-24T03:22:19.382Z,1013.33
2018-01-24T03:22:19.981Z,1013.34
2018-01-24T03:22:20.582Z,1013.38
2018-01-24T03:23:14.076Z,1013.38
2018-01-24T03:23:14.633Z,1013.38
2018-01-24T03:23:15.233Z,1013.37
2018-01-24T03:23:15.833Z,1013.37
2018-01-24T03:23:16.432Z,1013.38
2018-01-24T03:23:17.033Z,1013.40
2018-01-24T03:23:17.633Z,1013.40
2018-01-24T03:23:18.234Z,1013.39
2018-01-24T03:24:11.691Z,1013.40
2018-01-24T03:24:12.286Z,1013.39
2018-01-24T03:24:12.888Z,1013.38
2018-01-24T03:24:13.492Z,1013.39
2018-01-24T03:24:14.089Z,1013.39
2018-01-24T03:24:14.690Z,1013.41